createdAt,value
2018-12-16T00:00:54.996Z,-4.85
2018-12-16T00:01:55.118Z,-4.82
2018-12-16T00:02:55.002Z,-4.84
2018-12-16T00:03:55.260Z,-4.86
2018-12-16T00:04:54.955Z,-4.86
2018-12-16T00:05:55.743Z,-4.86
2018-12-16T00:06:54.901Z,-4.88
2018-12-16T00:07:54.947Z,-4.79
2018-12-16T00:08:55.086Z,-4.86
2018-12-16T00:09:55.110Z,-4.85
2018-12-16T00:10:55.727Z,-4.84
2018-12-16T00:11:55.226Z,-4.87
2018-12-16T00:12:54.940Z,-4.85
2018-12-16T00:13:54.963Z,-4.85
2018-12-16T00:14:55.007Z,-4.81
2018-12-16T00:15:54.876Z,-4.81
2018-12-16T00:16:55.252Z,-4.87
2018-12-16T00:17:54.923Z,-4.88
2018-12-16T00:18:55.049Z,-4.91
2018-12-16T00:19:54.936Z,-4.86
2018-12-16T00:20:55.092Z,-4.86
2018-12-16T00:21:55.055Z,-4.8
2018-12-16T00:22:55.097Z,-4.84
2018-12-16T00:23:55.035Z,-4.82
2018-12-16T00:24:55.181Z,-4.86
2018-12-16T00:25:55.649Z,-4.86
2018-12-16T00:26:55.064Z,-4.82
2018-12-16T00:27:55.063Z,-4.85
2018-12-16T00:28:54.928Z,-4.8
2018-12-16T00:29:55.038Z,-4.81
2018-12-16T00:30:55.148Z,-4.82
2018-12-16T00:31:54.920Z,-4.84
2018-12-16T00:32:55.068Z,-4.79
2018-12-16T00:33:55.120Z,-4.81
2018-12-16T00:34:55.048Z,-4.81
2018-12-16T00:35:55.260Z,-4.88
2018-12-16T00:36:55.035Z,-4.86
2018-12-16T00:37:55.263Z,-4.89
2018-12-16T00:38:54.958Z,-4.88
2018-12-16T00:39:55.094Z,-4.87
2018-12-16T00:40:54.872Z,-4.78
2018-12-16T00:41:55.092Z,-4.8
2018-12-16T00:42:54.932Z,-4.8
2018-12-16T00:43:54.977Z,-4.75
2018-12-16T00:44:55.144Z,-4.8
2018-12-16T00:45:54.953Z,-4.77
2018-12-16T00:46:55.293Z,-4.74
2018-12-16T00:47:54.887Z,-4.77
2018-12-16T00:48:54.898Z,-4.72
2018-12-16T00:49:54.837Z,-4.74
2018-12-16T00:50:55.094Z,-4.78
2018-12-16T00:51:54.864Z,-4.76
2018-12-16T00:52:54.924Z,-4.81
2018-12-16T00:53:54.886Z,-4.77
2018-12-16T00:54:54.834Z,-4.72
2018-12-16T00:55:54.855Z,-4.75
2018-12-16T00:56:54.816Z,-4.77
2018-12-16T00:57:54.856Z,-4.71
2018-12-16T00:58:54.947Z,-4.73
2018-12-16T00:59:55.022Z,-4.68
2018-12-16T01:00:54.840Z,-4.7
2018-12-16T01:01:54.917Z,-4.73
2018-12-16T01:02:54.825Z,-4.71
2018-12-16T01:03:55.222Z,-4.75
2018-12-16T01:04:55.109Z,-4.73
2018-12-16T01:05:54.857Z,-4.69
2018-12-16T01:06:55.039Z,-4.69
2018-12-16T01:07:54.902Z,-4.69
2018-12-16T01:08:55.185Z,-4.65
2018-12-16T01:09:55.000Z,-4.7
2018-12-16T01:10:55.155Z,-4.69
2018-12-16T01:11:54.889Z,-4.66
2018-12-16T01:12:54.834Z,-4.65
2018-12-16T01:13:55.178Z,-4.63
2018-12-16T01:14:54.812Z,-4.68
2018-12-16T01:15:55.189Z,-4.67
2018-12-16T01:16:54.834Z,-4.63
2018-12-16T01:17:55.282Z,-4.56
2018-12-16T01:18:55.166Z,-4.66
2018-12-16T01:19:55.221Z,-4.61
2018-12-16T01:20:55.296Z,-4.63
2018-12-16T01:21:54.870Z,-4.64
2018-12-16T01:22:55.048Z,-4.56
2018-12-16T01:23:54.853Z,-4.59
2018-12-16T01:24:55.023Z,-4.54
2018-12-16T01:25:54.793Z,-4.66
2018-12-16T01:26:55.129Z,-4.69
2018-12-16T01:27:55.204Z,-4.68
2018-12-16T01:28:55.223Z,-4.67
2018-12-16T01:29:55.147Z,-4.66
2018-12-16T01:30:54.900Z,-4.57
2018-12-16T01:31:54.822Z,-4.67
2018-12-16T01:32:55.457Z,-4.69
2018-12-16T01:33:54.852Z,-4.62
2018-12-16T01:34:54.816Z,-4.64
2018-12-16T01:35:55.002Z,-4.6
2018-12-16T01:36:54.873Z,-4.57
2018-12-16T01:37:54.985Z,-4.61
2018-12-16T01:38:54.835Z,-4.67
2018-12-16T01:39:54.842Z,-4.64
2018-12-16T01:40:55.069Z,-4.6
2018-12-16T01:41:54.822Z,-4.66
2018-12-16T01:42:55.074Z,-4.64
2018-12-16T01:43:55.307Z,-4.67
2018-12-16T01:44:55.052Z,-4.72
2018-12-16T01:45:54.939Z,-4.7
2018-12-16T01:46:55.015Z,-4.63
2018-12-16T01:47:54.938Z,-4.68
2018-12-16T01:48:54.939Z,-4.61
2018-12-16T01:49:54.847Z,-4.69
2018-12-16T01:50:54.968Z,-4.69
2018-12-16T01:51:54.951Z,-4.66
2018-12-16T01:52:54.951Z,-4.65
2018-12-16T01:53:54.792Z,-4.7
2018-12-16T01:54:54.871Z,-4.69
2018-12-16T01:55:54.834Z,-4.72
2018-12-16T01:56:55.164Z,-4.72
2018-12-16T01:57:54.852Z,-4.71
2018-12-16T01:58:55.062Z,-4.72
2018-12-16T01:59:54.806Z,-4.75
2018-12-16T02:00:54.863Z,-4.73
2018-12-16T02:01:54.757Z,-4.75
2018-12-16T02:02:55.103Z,-4.74
2018-12-16T02:03:54.725Z,-4.72
2018-12-16T02:04:55.170Z,-4.7
2018-12-16T02:05:54.746Z,-4.69
2018-12-16T02:06:54.828Z,-4.65
2018-12-16T02:07:54.844Z,-4.63
2018-12-16T02:08:54.785Z,-4.59
2018-12-16T02:09:54.844Z,-4.57
2018-12-16T02:10:54.746Z,-4.65
2018-12-16T02:11:54.821Z,-4.67
2018-12-16T02:12:55.100Z,-4.65
2018-12-16T02:13:54.978Z,-4.62
2018-12-16T02:14:54.712Z,-4.69
2018-12-16T02:15:54.865Z,-4.64
2018-12-16T02:16:54.774Z,-4.63
2018-12-16T02:17:54.781Z,-4.64
2018-12-16T02:18:54.756Z,-4.67
2018-12-16T02:19:54.881Z,-4.71
2018-12-16T02:20:54.936Z,-4.64
2018-12-16T02:21:54.887Z,-4.61
2018-12-16T02:22:57.426Z,-4.62
2018-12-16T02:23:54.720Z,-4.64
2018-12-16T02:24:54.946Z,-4.61
2018-12-16T02:25:54.814Z,-4.56
2018-12-16T02:26:54.701Z,-4.5
2018-12-16T02:27:54.714Z,-4.6
2018-12-16T02:28:54.753Z,-4.55
2018-12-16T02:29:54.791Z,-4.48
2018-12-16T02:30:54.823Z,-4.53
2018-12-16T02:31:54.773Z,-4.57
2018-12-16T02:32:54.781Z,-4.5
2018-12-16T02:33:54.718Z,-4.48
2018-12-16T02:34:54.699Z,-4.41
2018-12-16T02:35:55.049Z,-4.47
2018-12-16T02:36:54.730Z,-4.51
2018-12-16T02:37:54.764Z,-4.53
2018-12-16T02:38:54.709Z,-4.58
2018-12-16T02:39:54.729Z,-4.56
2018-12-16T02:40:54.736Z,-4.56
2018-12-16T02:41:54.815Z,-4.51
2018-12-16T02:42:54.824Z,-4.51
2018-12-16T02:43:54.761Z,-4.53
2018-12-16T02:44:54.745Z,-4.53
2018-12-16T02:45:54.898Z,-4.55
2018-12-16T02:46:54.949Z,-4.54
2018-12-16T02:47:54.922Z,-4.62
2018-12-16T02:48:54.775Z,-4.59
2018-12-16T02:49:54.820Z,-4.55
2018-12-16T02:50:55.090Z,-4.65
2018-12-16T02:51:54.746Z,-4.64
2018-12-16T02:52:54.704Z,-4.55
2018-12-16T02:53:54.813Z,-4.48
2018-12-16T02:54:54.736Z,-4.54
2018-12-16T02:55:54.702Z,-4.53
2018-12-16T02:56:54.867Z,-4.47
2018-12-16T02:57:54.755Z,-4.48
2018-12-16T02:58:54.714Z,-4.56
2018-12-16T02:59:54.823Z,-4.58
2018-12-16T03:00:54.742Z,-4.58
2018-12-16T03:01:54.786Z,-4.56
2018-12-16T03:02:54.824Z,-4.59
2018-12-16T03:03:55.386Z,-4.59
2018-12-16T03:04:54.673Z,-4.48
2018-12-16T03:05:54.833Z,-4.42
2018-12-16T03:06:54.814Z,-4.55
2018-12-16T03:07:55.100Z,-4.52
2018-12-16T03:08:54.744Z,-4.59
2018-12-16T03:09:54.722Z,-4.56
2018-12-16T03:10:54.885Z,-4.56
2018-12-16T03:11:54.772Z,-4.51
2018-12-16T03:12:54.664Z,-4.48
2018-12-16T03:13:54.673Z,-4.54
2018-12-16T03:14:54.726Z,-4.53
2018-12-16T03:15:54.843Z,-4.5
2018-12-16T03:16:54.638Z,-4.53
2018-12-16T03:17:54.635Z,-4.5
2018-12-16T03:18:54.973Z,-4.45
2018-12-16T03:19:54.682Z,-4.54
2018-12-16T03:20:55.051Z,-4.58
2018-12-16T03:21:54.833Z,-4.56
2018-12-16T03:22:54.899Z,-4.55
2018-12-16T03:23:54.745Z,-4.52
2018-12-16T03:24:54.770Z,-4.48
2018-12-16T03:25:54.823Z,-4.52
2018-12-16T03:26:54.723Z,-4.5
2018-12-16T03:27:54.705Z,-4.5
2018-12-16T03:28:54.700Z,-4.47
2018-12-16T03:29:54.687Z,-4.5
2018-12-16T03:30:54.718Z,-4.43
2018-12-16T03:31:54.684Z,-4.47
2018-12-16T03:32:54.823Z,-4.51
2018-12-16T03:33:54.891Z,-4.5
2018-12-16T03:34:54.637Z,-4.51
2018-12-16T03:35:54.840Z,-4.47
2018-12-16T03:36:54.696Z,-4.41
2018-12-16T03:37:54.662Z,-4.46
2018-12-16T03:38:54.625Z,-4.43
2018-12-16T03:39:54.874Z,-4.45
2018-12-16T03:40:54.710Z,-4.47
2018-12-16T03:41:54.993Z,-4.45
2018-12-16T03:42:54.836Z,-4.46
2018-12-16T03:43:54.806Z,-4.46
2018-12-16T03:44:54.771Z,-4.48
2018-12-16T03:45:54.984Z,-4.4
2018-12-16T03:46:54.821Z,-4.37
2018-12-16T03:47:54.669Z,-4.43
2018-12-16T03:48:54.675Z,-4.42
2018-12-16T03:49:54.804Z,-4.45
2018-12-16T03:50:54.773Z,-4.43
2018-12-16T03:51:54.739Z,-4.46
2018-12-16T03:52:54.809Z,-4.41
2018-12-16T03:53:54.746Z,-4.41
2018-12-16T03:54:54.719Z,-4.43
2018-12-16T03:55:54.720Z,-4.45
2018-12-16T03:56:54.596Z,-4.44
2018-12-16T03:57:54.655Z,-4.48
2018-12-16T03:58:54.596Z,-4.48
2018-12-16T03:59:54.738Z,-4.47
2018-12-16T04:00:54.729Z,-4.45
2018-12-16T04:01:54.684Z,-4.49
2018-12-16T04:02:54.571Z,-4.48
2018-12-16T04:03:54.614Z,-4.46
2018-12-16T04:04:54.585Z,-4.45
2018-12-16T04:05:54.643Z,-4.45
2018-12-16T04:06:54.534Z,-4.46
2018-12-16T04:07:54.679Z,-4.43
2018-12-16T04:08:54.594Z,-4.38
2018-12-16T04:09:54.653Z,-4.38
2018-12-16T04:10:54.557Z,-4.35
2018-12-16T04:11:54.590Z,-4.28
2018-12-16T04:12:54.594Z,-4.29
2018-12-16T04:13:54.563Z,-4.28
2018-12-16T04:14:54.588Z,-4.2
2018-12-16T04:15:54.748Z,-4.11
2018-12-16T04:16:54.555Z,-4.08
2018-12-16T04:17:54.608Z,-3.99
2018-12-16T04:18:54.547Z,-3.91
2018-12-16T04:19:54.555Z,-3.83
2018-12-16T04:20:54.578Z,-3.75
2018-12-16T04:21:55.395Z,-3.75
2018-12-16T04:22:54.747Z,-3.75
2018-12-16T04:23:54.709Z,-3.65
2018-12-16T04:24:54.725Z,-3.53
2018-12-16T04:25:54.694Z,-3.53
2018-12-16T04:26:55.046Z,-3.59
2018-12-16T04:27:54.720Z,-3.45
2018-12-16T04:28:54.612Z,-3.46
2018-12-16T04:29:54.604Z,-3.27
2018-12-16T04:30:54.736Z,-3.35
2018-12-16T04:31:54.702Z,-3.35
2018-12-16T04:32:54.860Z,-3.28
2018-12-16T04:33:55.391Z,-3.31
2018-12-16T04:34:55.350Z,-3.26
2018-12-16T04:35:54.932Z,-3.17
2018-12-16T04:36:54.718Z,-3.15
2018-12-16T04:37:54.522Z,-3.16
2018-12-16T04:38:54.662Z,-3.05
2018-12-16T04:39:54.616Z,-3.09
2018-12-16T04:40:54.605Z,-2.98
2018-12-16T04:41:54.529Z,-2.95
2018-12-16T04:42:54.746Z,-3.01
2018-12-16T04:43:54.695Z,-3.05
2018-12-16T04:44:54.568Z,-2.99
2018-12-16T04:45:54.582Z,-2.98
2018-12-16T04:46:54.583Z,-2.93
2018-12-16T04:47:54.551Z,-2.9
2018-12-16T04:48:54.561Z,-2.9
2018-12-16T04:49:54.565Z,-2.94
2018-12-16T04:50:54.548Z,-2.98
2018-12-16T04:51:54.502Z,-2.97
2018-12-16T04:52:54.676Z,-2.96
2018-12-16T04:53:54.754Z,-3.01
2018-12-16T04:54:54.739Z,-3.04
2018-12-16T04:55:54.508Z,-2.96
2018-12-16T04:56:54.706Z,-2.98
2018-12-16T04:57:54.573Z,-2.8
2018-12-16T04:58:54.579Z,-2.84
2018-12-16T04:59:54.525Z,-2.89
2018-12-16T05:00:54.721Z,-2.86
2018-12-16T05:01:54.719Z,-2.91
2018-12-16T05:02:54.510Z,-2.95
2018-12-16T05:03:54.577Z,-2.87
2018-12-16T05:04:54.795Z,-2.95
2018-12-16T05:05:54.619Z,-2.88
2018-12-16T05:06:54.618Z,-2.82
2018-12-16T05:07:54.691Z,-2.88
2018-12-16T05:08:54.534Z,-2.88
2018-12-16T05:09:54.520Z,-2.9
2018-12-16T05:10:54.580Z,-2.84
2018-12-16T05:11:54.608Z,-2.83
2018-12-16T05:12:54.592Z,-2.86
2018-12-16T05:13:54.635Z,-2.92
2018-12-16T05:14:54.599Z,-2.83
2018-12-16T05:15:54.551Z,-2.77
2018-12-16T05:16:54.860Z,-2.71
2018-12-16T05:17:54.508Z,-2.71
2018-12-16T05:18:54.553Z,-2.8
2018-12-16T05:19:55.353Z,-2.72
2018-12-16T05:20:54.510Z,-2.68
2018-12-16T05:21:54.814Z,-2.65
2018-12-16T05:22:54.833Z,-2.75
2018-12-16T05:23:54.711Z,-2.8
2018-12-16T05:24:54.663Z,-2.7
2018-12-16T05:25:55.315Z,-2.71
2018-12-16T05:26:54.552Z,-2.75
2018-12-16T05:27:54.638Z,-2.72
2018-12-16T05:28:55.337Z,-2.63
2018-12-16T05:29:58.888Z,-2.67
2018-12-16T05:30:54.625Z,-2.58
2018-12-16T05:31:54.499Z,-2.53
2018-12-16T05:32:54.454Z,-2.57
2018-12-16T05:33:55.265Z,-2.55
2018-12-16T05:34:54.614Z,-2.55
2018-12-16T05:35:54.640Z,-2.55
2018-12-16T05:36:54.822Z,-2.5
2018-12-16T05:37:54.452Z,-2.56
2018-12-16T05:38:54.655Z,-2.62
2018-12-16T05:39:54.501Z,-2.59
2018-12-16T05:40:54.475Z,-2.61
2018-12-16T05:41:54.481Z,-2.62
2018-12-16T05:42:54.553Z,-2.54
2018-12-16T05:43:54.497Z,-2.53
2018-12-16T05:44:54.453Z,-2.52
2018-12-16T05:45:54.582Z,-2.59
2018-12-16T05:46:54.536Z,-2.55
2018-12-16T05:47:54.563Z,-2.46
2018-12-16T05:48:54.435Z,-2.61
2018-12-16T05:49:54.471Z,-2.55
2018-12-16T05:50:54.473Z,-2.56
2018-12-16T05:51:54.414Z,-2.5
2018-12-16T05:52:54.482Z,-2.44
2018-12-16T05:53:54.499Z,-2.53
2018-12-16T05:54:54.435Z,-2.53
2018-12-16T05:55:54.492Z,-2.49
2018-12-16T05:56:54.568Z,-2.49
2018-12-16T05:57:54.483Z,-2.45
2018-12-16T05:58:54.450Z,-2.47
2018-12-16T05:59:54.901Z,-2.47
2018-12-16T06:00:54.464Z,-2.52
2018-12-16T06:01:54.610Z,-2.58
2018-12-16T06:02:54.610Z,-2.54
2018-12-16T06:03:55.202Z,-2.5
2018-12-16T06:04:54.616Z,-2.57
2018-12-16T06:05:54.563Z,-2.56
2018-12-16T06:06:54.589Z,-2.51
2018-12-16T06:07:54.662Z,-2.56
2018-12-16T06:08:54.482Z,-2.54
2018-12-16T06:09:54.636Z,-2.58
2018-12-16T06:10:54.628Z,-2.53
2018-12-16T06:11:54.491Z,-2.58
2018-12-16T06:12:54.592Z,-2.64
2018-12-16T06:13:55.270Z,-2.59
2018-12-16T06:14:54.615Z,-2.55
2018-12-16T06:15:54.516Z,-2.52
2018-12-16T06:16:54.388Z,-2.57
2018-12-16T06:17:54.427Z,-2.56
2018-12-16T06:18:55.227Z,-2.56
2018-12-16T06:19:54.427Z,-2.53
2018-12-16T06:20:54.443Z,-2.49
2018-12-16T06:21:54.489Z,-2.51
2018-12-16T06:22:54.372Z,-2.58
2018-12-16T06:23:56.176Z,-2.59
2018-12-16T06:24:54.483Z,-2.63
2018-12-16T06:25:54.872Z,-2.62
2018-12-16T06:26:54.842Z,-2.62
2018-12-16T06:27:54.950Z,-2.59
2018-12-16T06:28:54.357Z,-2.49
2018-12-16T06:29:54.585Z,-2.49
2018-12-16T06:30:54.387Z,-2.61
2018-12-16T06:31:55.545Z,-2.53
2018-12-16T06:32:54.541Z,-2.62
2018-12-16T06:33:54.678Z,-2.56
2018-12-16T06:34:54.595Z,-2.51
2018-12-16T06:35:54.432Z,-2.58
2018-12-16T06:36:54.630Z,-2.6
2018-12-16T06:37:54.578Z,-2.57
2018-12-16T06:38:54.370Z,-2.59
2018-12-16T06:39:55.239Z,-2.54
2018-12-16T06:40:54.424Z,-2.56
2018-12-16T06:41:55.556Z,-2.58
2018-12-16T06:42:54.359Z,-2.59
2018-12-16T06:43:54.396Z,-2.61
2018-12-16T06:44:54.476Z,-2.58
2018-12-16T06:45:54.518Z,-2.65
2018-12-16T06:46:54.554Z,-2.52
2018-12-16T06:47:54.464Z,-2.47
2018-12-16T06:48:54.393Z,-2.44
2018-12-16T06:49:54.362Z,-2.48
2018-12-16T06:50:54.782Z,-2.55
2018-12-16T06:51:54.519Z,-2.53
2018-12-16T06:52:54.390Z,-2.55
2018-12-16T06:53:54.605Z,-2.53
2018-12-16T06:54:54.664Z,-2.5
2018-12-16T06:55:54.557Z,-2.39
2018-12-16T06:56:54.518Z,-2.4
2018-12-16T06:57:54.838Z,-2.46
2018-12-16T06:58:54.473Z,-2.43
2018-12-16T06:59:54.375Z,-2.45
2018-12-16T07:00:54.467Z,-2.51
2018-12-16T07:01:54.441Z,-2.51
2018-12-16T07:02:54.530Z,-2.39
2018-12-16T07:03:54.635Z,-2.48
2018-12-16T07:04:54.404Z,-2.42
2018-12-16T07:05:54.625Z,-2.48
2018-12-16T07:06:54.330Z,-2.4
2018-12-16T07:07:54.568Z,-2.37
2018-12-16T07:08:54.568Z,-2.38
2018-12-16T07:09:54.461Z,-2.3
2018-12-16T07:10:54.416Z,-2.42
2018-12-16T07:11:54.376Z,-2.25
2018-12-16T07:12:54.384Z,-2.34
2018-12-16T07:13:54.437Z,-2.3
2018-12-16T07:14:54.888Z,-2.41
2018-12-16T07:15:54.475Z,-2.39
2018-12-16T07:16:54.357Z,-2.36
2018-12-16T07:17:54.352Z,-2.34
2018-12-16T07:18:54.528Z,-2.32
2018-12-16T07:19:54.427Z,-2.37
2018-12-16T07:20:54.581Z,-2.42
2018-12-16T07:21:54.483Z,-2.46
2018-12-16T07:22:54.456Z,-2.42
2018-12-16T07:23:54.364Z,-2.37
2018-12-16T07:24:54.420Z,-2.42
2018-12-16T07:25:54.426Z,-2.43
2018-12-16T07:26:54.493Z,-2.36
2018-12-16T07:27:54.431Z,-2.37
2018-12-16T07:28:54.423Z,-2.39
2018-12-16T07:29:54.367Z,-2.45
2018-12-16T07:30:54.413Z,-2.39
2018-12-16T07:31:54.451Z,-2.4
2018-12-16T07:32:54.300Z,-2.42
2018-12-16T07:33:54.638Z,-2.37
2018-12-16T07:34:54.354Z,-2.38
2018-12-16T07:35:54.743Z,-2.45
2018-12-16T07:36:54.351Z,-2.35
2018-12-16T07:37:54.549Z,-2.33
2018-12-16T07:38:54.575Z,-2.34
2018-12-16T07:39:54.748Z,-2.39
2018-12-16T07:40:54.534Z,-2.37
2018-12-16T07:41:54.435Z,-2.37
2018-12-16T07:42:54.487Z,-2.44
2018-12-16T07:43:55.162Z,-2.45
2018-12-16T07:44:54.718Z,-2.45
2018-12-16T07:45:54.320Z,-2.43
2018-12-16T07:46:54.411Z,-2.29
2018-12-16T07:47:54.369Z,-2.34
2018-12-16T07:48:54.661Z,-2.35
2018-12-16T07:49:54.537Z,-2.37
2018-12-16T07:50:54.342Z,-2.38
2018-12-16T07:51:54.613Z,-2.39
2018-12-16T07:52:54.369Z,-2.38
2018-12-16T07:53:54.785Z,-2.41
2018-12-16T07:54:54.521Z,-2.31
2018-12-16T07:55:54.414Z,-2.32
2018-12-16T07:56:54.427Z,-2.25
2018-12-16T07:57:54.496Z,-2.2
2018-12-16T07:58:54.527Z,-2.27
2018-12-16T07:59:54.241Z,-2.3
2018-12-16T08:00:54.670Z,-2.32
2018-12-16T08:01:54.449Z,-2.31
2018-12-16T08:02:54.485Z,-2.26
2018-12-16T08:03:54.417Z,-2.25
2018-12-16T08:04:54.291Z,-2.22
2018-12-16T08:05:54.362Z,-2.29
2018-12-16T08:06:54.465Z,-2.24
2018-12-16T08:07:54.422Z,-2.25
2018-12-16T08:08:54.331Z,-2.14
2018-12-16T08:09:54.337Z,-2.14
2018-12-16T08:10:54.466Z,-2.21
2018-12-16T08:11:54.311Z,-2.1
2018-12-16T08:12:54.324Z,-2.19
2018-12-16T08:13:54.573Z,-2.14
2018-12-16T08:14:54.319Z,-2.11
2018-12-16T08:15:54.254Z,-2.08
2018-12-16T08:16:54.384Z,-2.14
2018-12-16T08:17:54.528Z,-2.09
2018-12-16T08:18:54.210Z,-2.12
2018-12-16T08:19:54.269Z,-2.14
2018-12-16T08:20:54.274Z,-2.08
2018-12-16T08:21:54.491Z,-2.13
2018-12-16T08:22:54.363Z,-2.16
2018-12-16T08:23:55.067Z,-2.22
2018-12-16T08:24:54.438Z,-2.17
2018-12-16T08:25:54.293Z,-2.18
2018-12-16T08:26:55.032Z,-2.19
2018-12-16T08:27:54.395Z,-2.14
2018-12-16T08:28:54.325Z,-2.18
2018-12-16T08:29:54.512Z,-2.18
2018-12-16T08:30:54.263Z,-2.17
2018-12-16T08:31:54.463Z,-2.22
2018-12-16T08:32:54.267Z,-2.24
2018-12-16T08:33:54.301Z,-2.27
2018-12-16T08:34:54.289Z,-2.23
2018-12-16T08:35:54.418Z,-2.21
2018-12-16T08:36:54.243Z,-2.13
2018-12-16T08:37:54.296Z,-2.14
2018-12-16T08:38:54.500Z,-2.21
2018-12-16T08:39:54.338Z,-2.2
2018-12-16T08:40:54.626Z,-2.18
2018-12-16T08:41:54.347Z,-2.22
2018-12-16T08:42:54.302Z,-2.23
2018-12-16T08:43:54.362Z,-2.21
2018-12-16T08:44:54.330Z,-2.17
2018-12-16T08:45:54.401Z,-2.19
2018-12-16T08:46:54.277Z,-2.12
2018-12-16T08:47:54.425Z,-2.12
2018-12-16T08:48:55.009Z,-2.22
2018-12-16T08:49:54.870Z,-2.2
2018-12-16T08:50:54.312Z,-2.14
2018-12-16T08:51:55.010Z,-2.19
2018-12-16T08:52:55.271Z,-2.08
2018-12-16T08:53:54.378Z,-2.14
2018-12-16T08:54:54.547Z,-2.1
2018-12-16T08:55:54.413Z,-2.19
2018-12-16T08:56:54.753Z,-2.15
2018-12-16T08:57:54.241Z,-2.15
2018-12-16T08:58:54.282Z,-2.06
2018-12-16T08:59:54.237Z,-2.03
2018-12-16T09:00:54.221Z,-2
2018-12-16T09:01:54.178Z,-2
2018-12-16T09:02:54.193Z,-2.07
2018-12-16T09:03:54.216Z,-2.07
2018-12-16T09:04:54.183Z,-2.01
2018-12-16T09:05:54.178Z,-2.04
2018-12-16T09:06:54.179Z,-2.05
2018-12-16T09:07:54.291Z,-2.06
2018-12-16T09:08:54.216Z,-2.04
2018-12-16T09:09:54.264Z,-2.03
2018-12-16T09:10:54.397Z,-2.04
2018-12-16T09:11:54.254Z,-2.01
2018-12-16T09:12:54.200Z,-2.06
2018-12-16T09:13:54.604Z,-2.01
2018-12-16T09:14:54.187Z,-1.97
2018-12-16T09:15:54.962Z,-1.99
2018-12-16T09:16:54.495Z,-1.99
2018-12-16T09:17:54.260Z,-2.01
2018-12-16T09:18:54.131Z,-1.98
2018-12-16T09:19:54.258Z,-2.02
2018-12-16T09:20:54.254Z,-1.93
2018-12-16T09:21:54.528Z,-1.96
2018-12-16T09:22:54.634Z,-1.95
2018-12-16T09:23:54.324Z,-1.97
2018-12-16T09:24:54.360Z,-1.88
2018-12-16T09:25:54.280Z,-1.93
2018-12-16T09:26:54.145Z,-1.96
2018-12-16T09:27:54.230Z,-1.9
2018-12-16T09:28:54.207Z,-1.89
2018-12-16T09:29:54.284Z,-1.87
2018-12-16T09:30:58.481Z,-1.85
2018-12-16T09:31:54.356Z,-1.86
2018-12-16T09:32:54.959Z,-1.84
2018-12-16T09:33:54.175Z,-1.79
2018-12-16T09:34:54.228Z,-1.83
2018-12-16T09:35:54.192Z,-1.84
2018-12-16T09:36:54.363Z,-1.83
2018-12-16T09:37:54.584Z,-1.81
2018-12-16T09:38:54.190Z,-1.86
2018-12-16T09:39:54.122Z,-1.88
2018-12-16T09:40:54.153Z,-1.88
2018-12-16T09:41:54.197Z,-1.89
2018-12-16T09:42:54.102Z,-1.87
2018-12-16T09:43:54.105Z,-1.83
2018-12-16T09:44:54.098Z,-1.85
2018-12-16T09:45:54.175Z,-1.84
2018-12-16T09:46:54.232Z,-1.79
2018-12-16T09:47:54.458Z,-1.82
2018-12-16T09:48:54.147Z,-1.84
2018-12-16T09:49:54.509Z,-1.85
2018-12-16T09:50:54.326Z,-1.76
2018-12-16T09:51:54.121Z,-1.77
2018-12-16T09:52:54.329Z,-1.79
2018-12-16T09:53:54.239Z,-1.77
2018-12-16T09:54:54.138Z,-1.79
2018-12-16T09:55:54.487Z,-1.78
2018-12-16T09:56:54.114Z,-1.76
2018-12-16T09:57:54.257Z,-1.81
2018-12-16T09:58:54.161Z,-1.7
2018-12-16T09:59:54.263Z,-1.79
2018-12-16T10:00:54.508Z,-1.79
2018-12-16T10:01:54.237Z,-1.73
2018-12-16T10:02:54.246Z,-1.78
2018-12-16T10:03:54.081Z,-1.84
2018-12-16T10:04:54.337Z,-1.75
2018-12-16T10:05:54.575Z,-1.73
2018-12-16T10:06:54.308Z,-1.75
2018-12-16T10:07:54.283Z,-1.73
2018-12-16T10:08:54.296Z,-1.75
2018-12-16T10:09:54.280Z,-1.71
2018-12-16T10:10:54.537Z,-1.75
2018-12-16T10:11:54.099Z,-1.62
2018-12-16T10:12:54.298Z,-1.66
2018-12-16T10:13:54.637Z,-1.66
2018-12-16T10:14:54.216Z,-1.62
2018-12-16T10:15:54.278Z,-1.68
2018-12-16T10:16:54.071Z,-1.66
2018-12-16T10:17:54.119Z,-1.66
2018-12-16T10:18:54.219Z,-1.66
2018-12-16T10:19:54.100Z,-1.62
2018-12-16T10:20:54.215Z,-1.6
2018-12-16T10:21:54.924Z,-1.59
2018-12-16T10:22:54.203Z,-1.6
2018-12-16T10:23:54.074Z,-1.67
2018-12-16T10:24:54.901Z,-1.61
2018-12-16T10:25:54.125Z,-1.6
2018-12-16T10:26:54.230Z,-1.59
2018-12-16T10:27:54.057Z,-1.51
2018-12-16T10:28:54.358Z,-1.54
2018-12-16T10:29:54.084Z,-1.47
2018-12-16T10:30:54.181Z,-1.5
2018-12-16T10:31:54.315Z,-1.45
2018-12-16T10:32:54.057Z,-1.48
2018-12-16T10:33:54.230Z,-1.51
2018-12-16T10:34:54.107Z,-1.53
2018-12-16T10:35:54.297Z,-1.51
2018-12-16T10:36:54.251Z,-1.53
2018-12-16T10:37:54.170Z,-1.61
2018-12-16T10:38:57.377Z,-1.54
2018-12-16T10:39:54.171Z,-1.51
2018-12-16T10:40:56.941Z,-1.49
2018-12-16T10:41:55.175Z,-1.46
2018-12-16T10:42:54.290Z,-1.45
2018-12-16T10:43:54.434Z,-1.44
2018-12-16T10:44:54.095Z,-1.46
2018-12-16T10:45:54.345Z,-1.42
2018-12-16T10:46:54.187Z,-1.45
2018-12-16T10:47:54.144Z,-1.42
2018-12-16T10:48:54.129Z,-1.39
2018-12-16T10:49:54.205Z,-1.37
2018-12-16T10:50:54.182Z,-1.34
2018-12-16T10:51:54.198Z,-1.32
2018-12-16T10:52:54.103Z,-1.39
2018-12-16T10:53:54.713Z,-1.36
2018-12-16T10:54:58.989Z,-1.28
2018-12-16T10:55:54.095Z,-1.29
2018-12-16T10:56:55.625Z,-1.31
2018-12-16T10:57:54.890Z,-1.27
2018-12-16T10:58:54.199Z,-1.34
2018-12-16T10:59:54.229Z,-1.32
2018-12-16T11:00:54.116Z,-1.33
2018-12-16T11:01:54.305Z,-1.27
2018-12-16T11:02:59.188Z,-1.27
2018-12-16T11:03:58.568Z,-1.32
2018-12-16T11:04:57.859Z,-1.31
2018-12-16T11:05:56.999Z,-1.34
2018-12-16T11:06:57.966Z,-1.35
2018-12-16T11:07:56.082Z,-1.36
2018-12-16T11:08:56.211Z,-1.29
2018-12-16T11:09:54.603Z,-1.23
2018-12-16T11:10:55.092Z,-1.26
2018-12-16T11:11:54.889Z,-1.24
2018-12-16T11:12:57.331Z,-1.19
2018-12-16T11:13:59.370Z,-1.17
2018-12-16T11:14:58.944Z,-1.17
2018-12-16T11:15:59.849Z,-1.22
2018-12-16T11:16:56.153Z,-1.19
2018-12-16T11:17:55.286Z,-1.16
2018-12-16T11:18:56.135Z,-1.2
2018-12-16T11:19:54.640Z,-1.18
2018-12-16T11:20:56.395Z,-1.16
2018-12-16T11:21:56.127Z,-1.15
2018-12-16T11:22:58.809Z,-1.12
2018-12-16T11:23:56.436Z,-1.13
2018-12-16T11:24:57.043Z,-1.13
2018-12-16T11:25:56.022Z,-1.15
2018-12-16T11:26:57.496Z,-1.13
2018-12-16T11:28:59.372Z,-1.06
2018-12-16T11:29:56.959Z,-1.06
2018-12-16T11:30:56.527Z,-1.04
2018-12-16T11:31:56.047Z,-1.09
2018-12-16T11:32:57.124Z,-1.04
2018-12-16T11:33:55.865Z,-0.96
2018-12-16T11:34:56.654Z,-0.96
2018-12-16T11:35:55.979Z,-0.94
2018-12-16T11:36:57.302Z,-0.97
2018-12-16T11:38:00.619Z,-1.06
2018-12-16T11:38:56.367Z,-1.01
2018-12-16T11:39:57.651Z,-0.98
2018-12-16T11:40:56.162Z,-0.94
2018-12-16T11:41:56.536Z,-0.93
2018-12-16T11:42:56.446Z,-0.94
2018-12-16T11:43:54.696Z,-0.89
2018-12-16T11:44:56.308Z,-0.97
2018-12-16T11:45:56.761Z,-0.91
2018-12-16T11:46:55.870Z,-0.86
2018-12-16T11:47:59.112Z,-0.74
2018-12-16T11:48:59.055Z,-0.81
2018-12-16T11:49:56.082Z,-0.86
2018-12-16T11:50:56.132Z,-0.81
2018-12-16T11:51:57.328Z,-0.79
2018-12-16T11:52:56.060Z,-0.79
2018-12-16T11:53:56.663Z,-0.76
2018-12-16T11:54:57.010Z,-0.8
2018-12-16T11:55:56.369Z,-0.78
2018-12-16T11:56:58.038Z,-0.77
2018-12-16T11:57:57.053Z,-0.81
2018-12-16T11:58:56.300Z,-0.8
2018-12-16T11:59:56.107Z,-0.78
2018-12-16T12:01:17.871Z,-0.82
2018-12-16T12:04:02.192Z,-0.82
2018-12-16T12:04:57.400Z,-0.75
2018-12-16T12:05:19.225Z,-0.77
2018-12-16T12:05:57.809Z,-0.74
2018-12-16T12:06:54.413Z,-0.74
2018-12-16T12:07:54.181Z,-0.77
2018-12-16T12:08:54.141Z,-0.72
2018-12-16T12:09:54.385Z,-0.71
2018-12-16T12:10:54.083Z,-0.72
2018-12-16T12:11:54.053Z,-0.69
2018-12-16T12:12:53.955Z,-0.71
2018-12-16T12:13:54.084Z,-0.67
2018-12-16T12:14:53.884Z,-0.7
2018-12-16T12:15:53.928Z,-0.75
2018-12-16T12:16:54.426Z,-0.75
2018-12-16T12:17:53.959Z,-0.78
2018-12-16T12:18:53.866Z,-0.72
2018-12-16T12:19:54.005Z,-0.72
2018-12-16T12:20:53.927Z,-0.7
2018-12-16T12:21:54.154Z,-0.71
2018-12-16T12:22:53.894Z,-0.59
2018-12-16T12:23:54.257Z,-0.51
2018-12-16T12:24:54.008Z,-0.57
2018-12-16T12:25:54.006Z,-0.49
2018-12-16T12:26:54.074Z,-0.48
2018-12-16T12:27:54.315Z,-0.51
2018-12-16T12:28:53.967Z,-0.57
2018-12-16T12:29:54.090Z,-0.47
2018-12-16T12:30:54.138Z,-0.58
2018-12-16T12:31:54.060Z,-0.54
2018-12-16T12:32:53.946Z,-0.61
2018-12-16T12:33:54.372Z,-0.6
2018-12-16T12:34:54.044Z,-0.56
2018-12-16T12:35:54.169Z,-0.66
2018-12-16T12:36:54.136Z,-0.62
2018-12-16T12:37:53.938Z,-0.72
2018-12-16T12:38:53.928Z,-0.66
2018-12-16T12:39:54.215Z,-0.47
2018-12-16T12:40:54.798Z,-0.51
2018-12-16T12:41:54.691Z,-0.44
2018-12-16T12:42:53.980Z,-0.54
2018-12-16T12:43:53.932Z,-0.57
2018-12-16T12:44:53.969Z,-0.6
2018-12-16T12:45:54.163Z,-0.57
2018-12-16T12:46:53.850Z,-0.6
2018-12-16T12:47:54.036Z,-0.54
2018-12-16T12:48:54.065Z,-0.53
2018-12-16T12:49:53.884Z,-0.49
2018-12-16T12:50:53.880Z,-0.55
2018-12-16T12:51:54.050Z,-0.44
2018-12-16T12:52:53.897Z,-0.44
2018-12-16T12:53:54.070Z,-0.39
2018-12-16T12:54:54.110Z,-0.44
2018-12-16T12:55:53.858Z,-0.45
2018-12-16T12:56:53.822Z,-0.49